createdAt,value
2018-05-16T00:00:07.832Z,17.72
2018-05-16T00:01:07.589Z,17.74
2018-05-16T00:02:07.920Z,17.74
2018-05-16T00:03:07.929Z,17.7
2018-05-16T00:04:07.653Z,17.79
2018-05-16T00:05:07.963Z,17.65
2018-05-16T00:06:07.980Z,17.65
2018-05-16T00:07:07.998Z,17.71
2018-05-16T00:08:08.036Z,17.71
2018-05-16T00:09:07.775Z,17.63
2018-05-16T00:10:07.779Z,17.68
2018-05-16T00:11:08.078Z,17.65
2018-05-16T00:12:07.831Z,17.64
2018-05-16T00:13:07.852Z,17.64
2018-05-16T00:14:08.165Z,17.63
2018-05-16T00:15:07.613Z,17.56
2018-05-16T00:16:08.194Z,17.57
2018-05-16T00:17:08.226Z,17.51
2018-05-16T00:18:07.975Z,17.6
2018-05-16T00:19:07.985Z,17.6
2018-05-16T00:20:07.721Z,17.57
2018-05-16T00:21:08.303Z,17.63
2018-05-16T00:22:07.768Z,17.52
2018-05-16T00:23:07.804Z,17.52
2018-05-16T00:24:08.339Z,17.51
2018-05-16T00:25:08.389Z,17.54
2018-05-16T00:26:08.441Z,17.56
2018-05-16T00:27:08.159Z,17.41
2018-05-16T00:28:08.415Z,17.54
2018-05-16T00:29:08.189Z,17.51
2018-05-16T00:30:08.218Z,17.49
2018-05-16T00:31:08.494Z,17.48
2018-05-16T00:32:08.245Z,17.38
2018-05-16T00:33:08.258Z,17.38
2018-05-16T00:34:08.369Z,17.41
2018-05-16T00:35:08.325Z,17.38
2018-05-16T00:36:08.344Z,17.38
2018-05-16T00:37:08.682Z,17.39
2018-05-16T00:38:08.627Z,17.44
2018-05-16T00:39:08.649Z,17.36
2018-05-16T00:40:08.397Z,17.38
2018-05-16T00:41:08.435Z,17.31
2018-05-16T00:42:08.467Z,17.33
2018-05-16T00:43:08.466Z,17.3
2018-05-16T00:44:08.221Z,17.27
2018-05-16T00:45:08.241Z,17.39
2018-05-16T00:46:08.550Z,17.23
2018-05-16T00:47:08.852Z,17.34
2018-05-16T00:48:08.850Z,17.2
2018-05-16T00:49:08.682Z,17.23
2018-05-16T00:50:08.349Z,17.2
2018-05-16T00:51:08.651Z,17.23
2018-05-16T00:52:08.941Z,17.23
2018-05-16T00:53:08.696Z,17.16
2018-05-16T00:54:08.714Z,17.16
2018-05-16T00:55:08.447Z,17.15
2018-05-16T00:56:09.014Z,17.12
2018-05-16T00:57:08.488Z,17.22
2018-05-16T00:58:09.067Z,17.15
2018-05-16T00:59:08.817Z,17.2
2018-05-16T01:00:08.560Z,17.14
2018-05-16T01:01:09.127Z,17.12
2018-05-16T01:02:08.598Z,17.11
2018-05-16T01:03:08.600Z,17.11
2018-05-16T01:04:09.156Z,17.11
2018-05-16T01:05:09.200Z,17.06
2018-05-16T01:06:08.946Z,17.14
2018-05-16T01:07:09.238Z,17.05
2018-05-16T01:08:09.256Z,17.02
2018-05-16T01:09:09.268Z,17.04
2018-05-16T01:10:08.753Z,16.97
2018-05-16T01:11:09.342Z,17.02
2018-05-16T01:12:09.059Z,16.91
2018-05-16T01:13:09.349Z,16.97
2018-05-16T01:14:09.098Z,17.09
2018-05-16T01:15:09.473Z,17.06
2018-05-16T01:16:09.419Z,16.99
2018-05-16T01:17:09.172Z,16.97
2018-05-16T01:18:09.190Z,16.93
2018-05-16T01:19:09.498Z,17.12
2018-05-16T01:20:09.514Z,17.01
2018-05-16T01:21:09.524Z,17.11
2018-05-16T01:22:09.529Z,16.99
2018-05-16T01:23:09.583Z,16.94
2018-05-16T01:24:09.324Z,17.08
2018-05-16T01:25:09.331Z,16.91
2018-05-16T01:26:09.636Z,17.02
2018-05-16T01:27:09.645Z,17.01
2018-05-16T01:28:09.406Z,16.96
2018-05-16T01:29:09.681Z,17.04
2018-05-16T01:30:09.757Z,16.99
2018-05-16T01:31:09.707Z,16.99
2018-05-16T01:32:09.765Z,16.97
2018-05-16T01:33:09.766Z,16.96
2018-05-16T01:34:09.797Z,16.94
2018-05-16T01:35:09.527Z,17.02
2018-05-16T01:36:09.556Z,16.97
2018-05-16T01:37:09.834Z,16.86
2018-05-16T01:38:09.882Z,16.99
2018-05-16T01:39:09.617Z,16.99
2018-05-16T01:40:10.037Z,17.06
2018-05-16T01:41:09.670Z,17.04
2018-05-16T01:42:09.947Z,17.09
2018-05-16T01:43:09.974Z,16.99
2018-05-16T01:44:09.708Z,16.99
2018-05-16T01:45:10.030Z,17.06
2018-05-16T01:46:10.034Z,16.93
2018-05-16T01:47:09.789Z,16.99
2018-05-16T01:48:10.092Z,17.06
2018-05-16T01:49:10.096Z,16.96
2018-05-16T01:50:10.109Z,16.99
2018-05-16T01:51:09.859Z,17.05
2018-05-16T01:52:09.949Z,16.91
2018-05-16T01:53:09.905Z,16.99
2018-05-16T01:54:10.189Z,16.99
2018-05-16T01:55:09.989Z,17.01
2018-05-16T01:56:09.945Z,16.99
2018-05-16T01:57:10.256Z,17.02
2018-05-16T01:58:10.001Z,17.02
2018-05-16T01:59:10.300Z,17.02
2018-05-16T02:00:10.041Z,17.06
2018-05-16T02:01:10.312Z,17.01
2018-05-16T02:02:10.351Z,16.97
2018-05-16T02:03:10.373Z,16.99
2018-05-16T02:04:10.404Z,17.01
2018-05-16T02:05:10.151Z,17.02
2018-05-16T02:06:10.170Z,16.93
2018-05-16T02:07:10.435Z,17.02
2018-05-16T02:08:09.937Z,16.94
2018-05-16T02:09:09.952Z,17.09
2018-05-16T02:10:10.524Z,17.05
2018-05-16T02:11:10.267Z,17.04
2018-05-16T02:12:10.289Z,16.93
2018-05-16T02:13:10.595Z,16.91
2018-05-16T02:14:10.586Z,16.97
2018-05-16T02:15:10.609Z,17.04
2018-05-16T02:16:10.644Z,17.09
2018-05-16T02:17:10.388Z,17.01
2018-05-16T02:18:10.387Z,17.06
2018-05-16T02:19:10.719Z,16.93
2018-05-16T02:20:10.714Z,16.94
2018-05-16T02:21:10.740Z,17.01
2018-05-16T02:22:10.741Z,17.04
2018-05-16T02:23:10.768Z,17.09
2018-05-16T02:24:10.797Z,17.01
2018-05-16T02:25:10.558Z,16.96
2018-05-16T02:26:10.830Z,16.93
2018-05-16T02:27:10.301Z,17.04
2018-05-16T02:28:10.880Z,17.14
2018-05-16T02:29:10.890Z,17.06
2018-05-16T02:30:10.941Z,17.12
2018-05-16T02:31:10.400Z,17.06
2018-05-16T02:32:10.966Z,16.97
2018-05-16T02:33:10.702Z,17.11
2018-05-16T02:34:10.728Z,17.11
2018-05-16T02:35:11.033Z,17.08
2018-05-16T02:36:10.772Z,17.14
2018-05-16T02:37:11.085Z,17.15
2018-05-16T02:38:11.087Z,17.02
2018-05-16T02:39:11.097Z,17.06
2018-05-16T02:40:11.129Z,17.04
2018-05-16T02:41:10.871Z,17.01
2018-05-16T02:42:10.882Z,17.05
2018-05-16T02:43:10.912Z,17.06
2018-05-16T02:44:10.930Z,17.01
2018-05-16T02:45:11.206Z,16.96
2018-05-16T02:46:11.234Z,16.94
2018-05-16T02:47:10.997Z,17.05
2018-05-16T02:48:11.276Z,16.99
2018-05-16T02:49:11.311Z,16.97
2018-05-16T02:50:11.040Z,16.99
2018-05-16T02:51:11.074Z,17.06
2018-05-16T02:52:11.380Z,17.04
2018-05-16T02:53:11.404Z,17.09
2018-05-16T02:54:11.141Z,17.06
2018-05-16T02:55:11.431Z,17.04
2018-05-16T02:56:11.174Z,17.02
2018-05-16T02:57:11.213Z,17.08
2018-05-16T02:58:11.463Z,17.02
2018-05-16T02:59:10.959Z,17.01
2018-05-16T03:00:11.530Z,16.99
2018-05-16T03:01:11.256Z,17.01
2018-05-16T03:02:11.285Z,17.01
2018-05-16T03:03:11.601Z,17.05
2018-05-16T03:04:11.056Z,17.02
2018-05-16T03:05:11.616Z,17.02
2018-05-16T03:06:11.372Z,16.97
2018-05-16T03:07:11.398Z,17.04
2018-05-16T03:08:11.428Z,17.04
2018-05-16T03:09:11.429Z,17.08
2018-05-16T03:10:11.453Z,17.05
2018-05-16T03:11:11.466Z,17.08
2018-05-16T03:12:11.808Z,17.08
2018-05-16T03:13:11.783Z,17.09
2018-05-16T03:14:11.801Z,17.04
2018-05-16T03:15:11.824Z,17.05
2018-05-16T03:16:11.855Z,17.01
2018-05-16T03:17:11.609Z,17.04
2018-05-16T03:18:11.623Z,17.01
2018-05-16T03:19:11.644Z,17.04
2018-05-16T03:20:11.642Z,17.02
2018-05-16T03:21:11.682Z,17.08
2018-05-16T03:22:11.777Z,17.04
2018-05-16T03:23:11.986Z,17.14
2018-05-16T03:24:12.031Z,17.05
2018-05-16T03:25:11.749Z,17.04
2018-05-16T03:26:11.823Z,17.14
2018-05-16T03:27:12.052Z,16.99
2018-05-16T03:28:11.527Z,17.02
2018-05-16T03:29:12.112Z,17.04
2018-05-16T03:30:12.125Z,17.12
2018-05-16T03:31:11.880Z,17.15
2018-05-16T03:32:12.158Z,17.06
2018-05-16T03:33:11.933Z,17.15
2018-05-16T03:34:12.206Z,17.12
2018-05-16T03:35:12.222Z,17.19
2018-05-16T03:36:12.004Z,17.05
2018-05-16T03:37:11.715Z,17.08
2018-05-16T03:38:12.265Z,17.08
2018-05-16T03:39:12.032Z,17.05
2018-05-16T03:40:12.319Z,17.14
2018-05-16T03:41:12.346Z,17.14
2018-05-16T03:42:12.343Z,17.11
2018-05-16T03:43:12.114Z,17.12
2018-05-16T03:44:12.401Z,17.11
2018-05-16T03:45:12.167Z,17.15
2018-05-16T03:46:12.460Z,17.05
2018-05-16T03:47:12.464Z,17.14
2018-05-16T03:48:12.462Z,17.09
2018-05-16T03:49:12.504Z,17.15
2018-05-16T03:50:12.518Z,17.09
2018-05-16T03:51:12.552Z,17.12
2018-05-16T03:52:12.566Z,17.11
2018-05-16T03:53:12.321Z,17.11
2018-05-16T03:54:12.055Z,17.11
2018-05-16T03:55:12.622Z,17.14
2018-05-16T03:56:12.383Z,17.05
2018-05-16T03:57:12.396Z,17.15
2018-05-16T03:58:12.688Z,17.12
2018-05-16T03:59:12.440Z,17.11
2018-05-16T04:00:12.735Z,17.15
2018-05-16T04:01:12.753Z,17.09
2018-05-16T04:02:12.847Z,17.06
2018-05-16T04:03:12.780Z,17.09
2018-05-16T04:04:12.803Z,17.2
2018-05-16T04:05:12.840Z,17.2
2018-05-16T04:06:12.576Z,17.11
2018-05-16T04:07:12.853Z,17.12
2018-05-16T04:08:12.345Z,17.11
2018-05-16T04:09:12.906Z,17.23
2018-05-16T04:10:12.944Z,17.14
2018-05-16T04:11:12.998Z,17.23
2018-05-16T04:12:12.970Z,17.14
2018-05-16T04:13:12.715Z,17.14
2018-05-16T04:14:13.006Z,17.14
2018-05-16T04:15:13.023Z,17.15
2018-05-16T04:16:13.049Z,17.12
2018-05-16T04:17:13.053Z,17.16
2018-05-16T04:18:13.083Z,17.19
2018-05-16T04:19:13.104Z,17.12
2018-05-16T04:20:12.858Z,17.19
2018-05-16T04:21:13.208Z,17.14
2018-05-16T04:22:12.897Z,17.26
2018-05-16T04:23:12.921Z,17.22
2018-05-16T04:24:12.948Z,17.26
2018-05-16T04:25:13.213Z,17.2
2018-05-16T04:26:13.232Z,17.29
2018-05-16T04:27:13.275Z,17.23
2018-05-16T04:28:13.032Z,17.2
2018-05-16T04:29:13.292Z,17.23
2018-05-16T04:30:13.315Z,17.26
2018-05-16T04:31:13.064Z,17.24
2018-05-16T04:32:13.390Z,17.23
2018-05-16T04:33:13.367Z,17.24
2018-05-16T04:34:13.423Z,17.23
2018-05-16T04:35:13.448Z,17.26
2018-05-16T04:36:13.445Z,17.29
2018-05-16T04:37:13.461Z,17.23
2018-05-16T04:38:13.471Z,17.26
2018-05-16T04:39:13.490Z,17.38
2018-05-16T04:40:13.558Z,17.26
2018-05-16T04:41:13.267Z,17.41
2018-05-16T04:42:13.025Z,17.29
2018-05-16T04:43:13.334Z,17.31
2018-05-16T04:44:13.632Z,17.34
2018-05-16T04:45:13.641Z,17.3
2018-05-16T04:46:13.667Z,17.29
2018-05-16T04:47:13.478Z,17.34
2018-05-16T04:48:13.420Z,17.34
2018-05-16T04:49:13.434Z,17.34
2018-05-16T04:50:13.711Z,17.38
2018-05-16T04:51:13.752Z,17.38
2018-05-16T04:52:13.494Z,17.36
2018-05-16T04:53:13.539Z,17.42
2018-05-16T04:54:13.543Z,17.34
2018-05-16T04:55:13.562Z,17.41
2018-05-16T04:56:13.852Z,17.34
2018-05-16T04:57:13.888Z,17.36
2018-05-16T04:58:13.639Z,17.44
2018-05-16T04:59:13.368Z,17.38
2018-05-16T05:00:13.932Z,17.34
2018-05-16T05:01:13.938Z,17.42
2018-05-16T05:02:13.425Z,17.49
2018-05-16T05:03:13.989Z,17.51
2018-05-16T05:04:14.013Z,17.48
2018-05-16T05:05:14.045Z,17.49
2018-05-16T05:06:13.794Z,17.56
2018-05-16T05:07:14.087Z,17.45
2018-05-16T05:08:14.081Z,17.52
2018-05-16T05:09:13.833Z,17.49
2018-05-16T05:10:13.877Z,17.54
2018-05-16T05:11:14.160Z,17.49
2018-05-16T05:12:13.897Z,17.48
2018-05-16T05:13:14.202Z,17.56
2018-05-16T05:14:14.218Z,17.46
2018-05-16T05:15:14.217Z,17.54
2018-05-16T05:16:13.982Z,17.57
2018-05-16T05:17:14.282Z,17.59
2018-05-16T05:18:14.154Z,17.52
2018-05-16T05:19:14.414Z,17.56
2018-05-16T05:20:14.341Z,17.56
2018-05-16T05:21:14.347Z,17.46
2018-05-16T05:22:14.157Z,17.57
2018-05-16T05:23:14.123Z,17.6
2018-05-16T05:24:14.797Z,17.56
2018-05-16T05:25:14.269Z,17.64
2018-05-16T05:26:14.479Z,17.65
2018-05-16T05:27:14.214Z,17.64
2018-05-16T05:28:14.501Z,17.65
2018-05-16T05:29:14.520Z,17.67
2018-05-16T05:30:14.434Z,17.7
2018-05-16T05:31:14.290Z,17.72
2018-05-16T05:32:14.327Z,17.7
2018-05-16T05:33:14.595Z,17.72
2018-05-16T05:34:14.633Z,17.78
2018-05-16T05:35:14.659Z,17.76
2018-05-16T05:36:14.661Z,17.8
2018-05-16T05:37:14.431Z,17.72
2018-05-16T05:38:14.705Z,17.83
2018-05-16T05:39:14.471Z,17.78
2018-05-16T05:40:14.483Z,17.76
2018-05-16T05:41:14.763Z,17.83
2018-05-16T05:42:14.779Z,17.79
2018-05-16T05:43:14.825Z,17.85
2018-05-16T05:44:14.770Z,17.83
2018-05-16T05:45:14.575Z,17.79
2018-05-16T05:46:14.863Z,17.74
2018-05-16T05:47:14.902Z,17.79
2018-05-16T05:48:14.626Z,17.79
2018-05-16T05:49:15.116Z,17.87
2018-05-16T05:50:14.928Z,17.8
2018-05-16T05:51:14.989Z,17.76
2018-05-16T05:52:15.038Z,17.8
2018-05-16T05:53:15.023Z,17.79
2018-05-16T05:54:14.790Z,17.87
2018-05-16T05:55:15.037Z,17.83
2018-05-16T05:56:15.085Z,17.85
2018-05-16T05:57:15.110Z,17.9
2018-05-16T05:58:14.578Z,17.9
2018-05-16T05:59:15.144Z,17.85
2018-05-16T06:00:14.988Z,17.94
2018-05-16T06:01:14.896Z,17.94
2018-05-16T06:02:15.175Z,17.94
2018-05-16T06:03:14.662Z,17.94
2018-05-16T06:04:15.244Z,17.86
2018-05-16T06:05:14.980Z,17.87
2018-05-16T06:06:15.267Z,17.87
2018-05-16T06:07:15.310Z,17.9
2018-05-16T06:08:15.301Z,17.9
2018-05-16T06:09:15.338Z,17.92
2018-05-16T06:10:15.114Z,17.87
2018-05-16T06:11:15.388Z,17.95
2018-05-16T06:12:15.398Z,17.95
2018-05-16T06:13:15.433Z,17.87
2018-05-16T06:14:15.164Z,17.94
2018-05-16T06:15:15.449Z,17.86
2018-05-16T06:16:15.196Z,18.01
2018-05-16T06:17:15.237Z,18.03
2018-05-16T06:18:15.532Z,17.97
2018-05-16T06:19:15.560Z,18.01
2018-05-16T06:20:15.576Z,18
2018-05-16T06:21:15.325Z,18.03
2018-05-16T06:22:15.611Z,18.05
2018-05-16T06:23:15.603Z,18.05
2018-05-16T06:24:15.369Z,18.05
2018-05-16T06:25:15.711Z,18.08
2018-05-16T06:26:15.414Z,18.18
2018-05-16T06:27:16.110Z,18.08
2018-05-16T06:28:15.741Z,18.03
2018-05-16T06:29:15.737Z,18.07
2018-05-16T06:30:15.217Z,18.07
2018-05-16T06:31:15.789Z,18.03
2018-05-16T06:32:15.538Z,18.04
2018-05-16T06:33:15.832Z,18.07
2018-05-16T06:34:15.840Z,18.05
2018-05-16T06:35:15.888Z,18.04
2018-05-16T06:36:15.877Z,18.05
2018-05-16T06:37:15.915Z,18.05
2018-05-16T06:38:15.924Z,18.05
2018-05-16T06:39:15.855Z,18.08
2018-05-16T06:40:16.086Z,18.05
2018-05-16T06:41:15.983Z,18.03
2018-05-16T06:42:16.032Z,18.05
2018-05-16T06:43:16.051Z,18.01
2018-05-16T06:44:16.058Z,18.19
2018-05-16T06:45:15.806Z,18.11
2018-05-16T06:46:16.092Z,18.04
2018-05-16T06:47:16.112Z,18.13
2018-05-16T06:48:16.148Z,18.08
2018-05-16T06:49:16.165Z,18.15
2018-05-16T06:50:16.174Z,18.16
2018-05-16T06:51:15.915Z,18.19
2018-05-16T06:52:16.215Z,18.15
2018-05-16T06:53:16.227Z,18.25
2018-05-16T06:54:15.998Z,18.2
2018-05-16T06:55:16.010Z,18.28
2018-05-16T06:56:16.291Z,18.34
2018-05-16T06:57:16.342Z,18.37
2018-05-16T06:58:16.359Z,18.35
2018-05-16T06:59:16.374Z,18.35
2018-05-16T07:00:16.407Z,18.44
2018-05-16T07:01:15.862Z,18.52
2018-05-16T07:02:15.902Z,18.45
2018-05-16T07:03:16.431Z,18.45
2018-05-16T07:04:16.427Z,18.5
2018-05-16T07:05:16.493Z,18.49
2018-05-16T07:06:16.522Z,18.53
2018-05-16T07:07:16.526Z,18.49
2018-05-16T07:08:16.547Z,18.59
2018-05-16T07:09:16.589Z,18.59
2018-05-16T07:10:16.056Z,18.59
2018-05-16T07:11:16.075Z,18.6
2018-05-16T07:12:16.634Z,18.55
2018-05-16T07:13:16.708Z,18.59
2018-05-16T07:14:16.669Z,18.6
2018-05-16T07:15:16.689Z,18.59
2018-05-16T07:16:16.724Z,18.63
2018-05-16T07:17:16.722Z,18.59
2018-05-16T07:18:16.749Z,18.66
2018-05-16T07:19:16.511Z,18.55
2018-05-16T07:20:16.806Z,18.66
2018-05-16T07:21:16.278Z,18.6
2018-05-16T07:22:16.842Z,18.63
2018-05-16T07:23:16.908Z,18.65
2018-05-16T07:24:16.898Z,18.62
2018-05-16T07:25:16.637Z,18.65
2018-05-16T07:26:16.916Z,18.62
2018-05-16T07:27:16.963Z,18.59
2018-05-16T07:28:16.707Z,18.59
2018-05-16T07:29:17.011Z,18.63
2018-05-16T07:30:16.478Z,18.59
2018-05-16T07:31:17.026Z,18.62
2018-05-16T07:32:17.078Z,18.59
2018-05-16T07:33:16.798Z,18.59
2018-05-16T07:34:17.089Z,18.62
2018-05-16T07:35:17.104Z,18.56
2018-05-16T07:36:17.139Z,18.62
2018-05-16T07:37:17.170Z,18.63
2018-05-16T07:38:17.176Z,18.58
2018-05-16T07:39:16.932Z,18.63
2018-05-16T07:40:17.233Z,18.62
2018-05-16T07:41:17.602Z,18.65
2018-05-16T07:42:16.719Z,18.55
2018-05-16T07:43:17.017Z,18.71
2018-05-16T07:44:17.031Z,18.58
2018-05-16T07:45:17.407Z,18.7
2018-05-16T07:46:17.362Z,18.6
2018-05-16T07:47:17.470Z,18.65
2018-05-16T07:48:17.129Z,18.8
2018-05-16T07:49:17.152Z,18.74
2018-05-16T07:50:17.422Z,18.78
2018-05-16T07:51:17.620Z,18.77
2018-05-16T07:52:17.196Z,18.78
2018-05-16T07:53:17.217Z,18.78
2018-05-16T07:54:17.282Z,18.74
2018-05-16T07:55:17.540Z,18.77
2018-05-16T07:56:17.593Z,18.83
2018-05-16T07:57:17.310Z,18.86
2018-05-16T07:58:17.579Z,18.88
2018-05-16T07:59:17.605Z,18.84
2018-05-16T08:00:17.657Z,18.83
2018-05-16T08:01:17.393Z,18.86
2018-05-16T08:02:17.416Z,18.9
2018-05-16T08:03:17.807Z,18.9
2018-05-16T08:04:17.452Z,18.93
2018-05-16T08:05:17.467Z,18.92
2018-05-16T08:06:17.777Z,18.84
2018-05-16T08:07:17.768Z,18.96
2018-05-16T08:08:17.814Z,18.95
2018-05-16T08:09:17.622Z,18.9
2018-05-16T08:10:17.842Z,18.92
2018-05-16T08:11:17.598Z,18.89
2018-05-16T08:12:18.088Z,18.92
2018-05-16T08:13:17.650Z,18.9
2018-05-16T08:14:17.711Z,18.88
2018-05-16T08:15:17.955Z,18.9
2018-05-16T08:16:17.977Z,18.84
2018-05-16T08:17:17.992Z,18.9
2018-05-16T08:18:18.004Z,18.93
2018-05-16T08:19:18.039Z,19
2018-05-16T08:20:17.804Z,18.98
2018-05-16T08:21:18.138Z,18.96
2018-05-16T08:22:18.101Z,18.88
2018-05-16T08:23:18.118Z,18.95
2018-05-16T08:24:18.142Z,18.96
2018-05-16T08:25:17.879Z,18.88
2018-05-16T08:26:17.919Z,18.88
2018-05-16T08:27:17.936Z,18.95
2018-05-16T08:28:18.242Z,18.92
2018-05-16T08:29:18.252Z,18.88
2018-05-16T08:30:18.274Z,18.93
2018-05-16T08:31:18.609Z,18.9
2018-05-16T08:32:18.042Z,18.99
2018-05-16T08:33:18.352Z,18.89
2018-05-16T08:34:18.369Z,19.02
2018-05-16T08:35:18.381Z,19
2018-05-16T08:36:18.408Z,18.98
2018-05-16T08:37:18.407Z,19.02
2018-05-16T08:38:18.453Z,19.09
2018-05-16T08:39:18.284Z,19.11
2018-05-16T08:40:18.221Z,19.12
2018-05-16T08:41:18.507Z,19.16
2018-05-16T08:42:18.020Z,19.21
2018-05-16T08:43:18.542Z,19.29
2018-05-16T08:44:18.552Z,19.24
2018-05-16T08:45:18.320Z,19.29
2018-05-16T08:46:18.620Z,19.36
2018-05-16T08:47:18.639Z,19.39
2018-05-16T08:48:18.390Z,19.39
2018-05-16T08:49:18.677Z,19.47
2018-05-16T08:50:18.148Z,19.51
2018-05-16T08:51:18.711Z,19.49
2018-05-16T08:52:18.472Z,19.54
2018-05-16T08:53:18.769Z,19.45
2018-05-16T08:54:18.824Z,19.45
2018-05-16T08:55:18.784Z,19.41
2018-05-16T08:56:18.826Z,19.49
2018-05-16T08:57:18.832Z,19.55
2018-05-16T08:58:18.887Z,19.54
2018-05-16T08:59:18.687Z,19.51
2018-05-16T09:00:18.640Z,19.51
2018-05-16T09:01:19.131Z,19.55
2018-05-16T09:02:18.956Z,19.47
2018-05-16T09:03:18.992Z,19.49
2018-05-16T09:04:19.004Z,19.33
2018-05-16T09:05:18.672Z,19.41
2018-05-16T09:06:19.041Z,19.33
2018-05-16T09:07:19.073Z,19.45
2018-05-16T09:08:19.076Z,19.41
2018-05-16T09:09:19.121Z,19.34
2018-05-16T09:10:18.884Z,19.41
2018-05-16T09:11:19.144Z,19.41
2018-05-16T09:12:19.182Z,19.47
2018-05-16T09:13:18.920Z,19.39
2018-05-16T09:14:19.294Z,19.4
2018-05-16T09:15:19.229Z,19.45
2018-05-16T09:16:19.273Z,19.47
2018-05-16T09:17:19.211Z,19.45
2018-05-16T09:18:19.298Z,19.45
2018-05-16T09:19:19.321Z,19.39
2018-05-16T09:20:19.089Z,19.4
2018-05-16T09:21:19.105Z,19.34
2018-05-16T09:22:19.112Z,19.4
2018-05-16T09:23:19.134Z,19.39
2018-05-16T09:24:18.950Z,19.31
2018-05-16T09:25:19.392Z,19.41
2018-05-16T09:26:19.455Z,19.41
2018-05-16T09:27:19.560Z,19.44
2018-05-16T09:28:19.523Z,19.41
2018-05-16T09:29:19.554Z,19.45
2018-05-16T09:30:19.561Z,19.44
2018-05-16T09:31:19.593Z,19.33
2018-05-16T09:32:19.600Z,19.3
2018-05-16T09:33:19.622Z,19.4
2018-05-16T09:34:19.359Z,19.39
2018-05-16T09:35:19.692Z,19.48
2018-05-16T09:36:19.414Z,19.37
2018-05-16T09:37:19.725Z,19.44
2018-05-16T09:38:19.464Z,19.51
2018-05-16T09:39:19.713Z,19.41
2018-05-16T09:40:19.901Z,19.52
2018-05-16T09:41:19.817Z,19.55
2018-05-16T09:42:19.831Z,19.56
2018-05-16T09:43:19.839Z,19.64
2018-05-16T09:44:19.592Z,19.51
2018-05-16T09:45:19.339Z,19.55
2018-05-16T09:46:20.178Z,19.59
2018-05-16T09:47:19.643Z,19.59
2018-05-16T09:48:20.360Z,19.67
2018-05-16T09:49:19.976Z,19.7
2018-05-16T09:50:19.733Z,19.74
2018-05-16T09:51:19.747Z,19.7
2018-05-16T09:52:19.950Z,19.84
2018-05-16T09:53:19.786Z,19.95
2018-05-16T09:54:19.827Z,19.92
2018-05-16T09:55:20.079Z,20.02
2018-05-16T09:56:19.861Z,20.04
2018-05-16T09:57:20.143Z,20.18
2018-05-16T09:58:19.905Z,20.16
2018-05-16T09:59:19.914Z,20.14
2018-05-16T10:00:19.933Z,20.24
2018-05-16T10:01:19.965Z,20.14
2018-05-16T10:02:20.268Z,20.29
2018-05-16T10:03:20.280Z,20.26
2018-05-16T10:04:20.278Z,20.29
2018-05-16T10:05:20.306Z,20.25
2018-05-16T10:06:20.331Z,20.29
2018-05-16T10:07:20.339Z,20.34
2018-05-16T10:08:20.378Z,20.47
2018-05-16T10:09:20.131Z,20.4
2018-05-16T10:10:20.157Z,20.43
2018-05-16T10:11:20.176Z,20.41
2018-05-16T10:12:20.481Z,20.39
2018-05-16T10:13:20.482Z,20.43
2018-05-16T10:14:20.519Z,20.44
2018-05-16T10:15:20.060Z,20.41
2018-05-16T10:16:20.557Z,20.43
2018-05-16T10:17:20.323Z,20.52
2018-05-16T10:18:20.328Z,20.44
2018-05-16T10:19:20.348Z,20.43
2018-05-16T10:20:20.878Z,20.44
2018-05-16T10:21:20.457Z,20.47
2018-05-16T10:22:20.700Z,20.43
2018-05-16T10:23:20.712Z,20.48
2018-05-16T10:24:20.468Z,20.48
2018-05-16T10:25:20.498Z,20.55
2018-05-16T10:26:20.769Z,20.51
2018-05-16T10:27:20.249Z,20.48
2018-05-16T10:28:20.816Z,20.5
2018-05-16T10:29:20.854Z,20.51
2018-05-16T10:30:20.318Z,20.43
2018-05-16T10:31:21.085Z,20.51
2018-05-16T10:32:20.629Z,20.43
2018-05-16T10:33:20.673Z,20.5
2018-05-16T10:34:20.954Z,20.4
2018-05-16T10:35:20.696Z,20.43
2018-05-16T10:36:21.010Z,20.51
2018-05-16T10:37:21.016Z,20.48
2018-05-16T10:38:21.031Z,20.47
2018-05-16T10:39:21.114Z,20.5
2018-05-16T10:40:21.091Z,20.48
2018-05-16T10:41:21.192Z,20.52
2018-05-16T10:42:20.859Z,20.5
2018-05-16T10:43:21.157Z,20.41
2018-05-16T10:44:20.893Z,20.41
2018-05-16T10:45:20.646Z,20.5
2018-05-16T10:46:21.228Z,20.56
2018-05-16T10:47:21.228Z,20.52
2018-05-16T10:48:20.989Z,20.51
2018-05-16T10:49:21.019Z,20.51
2018-05-16T10:50:21.042Z,20.65
2018-05-16T10:51:21.314Z,20.6
2018-05-16T10:52:21.796Z,20.66
2018-05-16T10:53:21.106Z,20.72
2018-05-16T10:54:21.444Z,20.77
2018-05-16T10:55:20.868Z,20.75
2018-05-16T10:56:21.173Z,20.88
2018-05-16T10:57:21.264Z,21.05
2018-05-16T10:58:21.490Z,21.17
2018-05-16T10:59:21.502Z,21.29
2018-05-16T11:00:21.552Z,21.36
2018-05-16T11:01:21.736Z,21.45
2018-05-16T11:02:21.299Z,21.54
2018-05-16T11:03:21.376Z,21.72
2018-05-16T11:04:21.624Z,21.8
2018-05-16T11:05:21.642Z,21.95
2018-05-16T11:06:21.683Z,22.04
2018-05-16T11:07:21.679Z,22.04
2018-05-16T11:08:21.707Z,22.13
2018-05-16T11:09:21.475Z,22.28
2018-05-16T11:10:21.768Z,22.35
2018-05-16T11:11:21.245Z,22.28
2018-05-16T11:12:21.807Z,22.5
2018-05-16T11:13:21.827Z,22.55
2018-05-16T11:14:21.590Z,22.53
2018-05-16T11:15:21.873Z,22.63
2018-05-16T11:16:21.875Z,22.59
2018-05-16T11:17:21.982Z,22.69
2018-05-16T11:18:21.408Z,22.78
2018-05-16T11:19:21.974Z,22.84
2018-05-16T11:20:21.972Z,22.96
2018-05-16T11:21:21.764Z,22.99
2018-05-16T11:22:22.137Z,23.08
2018-05-16T11:23:22.040Z,23.21
2018-05-16T11:24:22.077Z,23.23
2018-05-16T11:25:22.086Z,23.41
2018-05-16T11:26:21.863Z,23.54
2018-05-16T11:27:22.163Z,23.55
2018-05-16T11:28:22.183Z,23.63
2018-05-16T11:29:22.011Z,23.68
2018-05-16T11:30:21.952Z,23.66
2018-05-16T11:31:22.246Z,23.77
2018-05-16T11:32:22.289Z,23.78
2018-05-16T11:33:22.012Z,23.83
2018-05-16T11:34:22.050Z,23.87
2018-05-16T11:35:22.070Z,23.92
2018-05-16T11:36:22.368Z,23.99
2018-05-16T11:37:22.379Z,24.02
2018-05-16T11:38:22.128Z,24.03
2018-05-16T11:39:22.798Z,24.06
2018-05-16T11:40:22.187Z,24.05
2018-05-16T11:41:22.499Z,24.11
2018-05-16T11:42:22.579Z,24.21
2018-05-16T11:43:22.550Z,24.18
2018-05-16T11:44:22.561Z,24.21
2018-05-16T11:45:22.570Z,24.2
2018-05-16T11:46:22.598Z,24.18
2018-05-16T11:47:22.627Z,24.13
2018-05-16T11:48:22.648Z,24.03
2018-05-16T11:49:22.685Z,24.1
2018-05-16T11:50:22.692Z,24.11
2018-05-16T11:51:22.712Z,24.03
2018-05-16T11:52:22.769Z,23.99
2018-05-16T11:53:22.493Z,23.95
2018-05-16T11:54:22.847Z,23.91
2018-05-16T11:55:22.555Z,23.92
2018-05-16T11:56:22.846Z,23.87
2018-05-16T11:57:22.872Z,23.96
2018-05-16T11:58:22.909Z,24.03
2018-05-16T11:59:23.074Z,24.02
2018-05-16T12:00:22.930Z,24.02
2018-05-16T12:01:22.971Z,24.06
2018-05-16T12:02:22.707Z,24.02
2018-05-16T12:03:22.738Z,24.03
2018-05-16T12:04:22.785Z,23.99
2018-05-16T12:05:22.794Z,24.05
2018-05-16T12:06:22.825Z,24.01
2018-05-16T12:07:22.840Z,23.99
2018-05-16T12:08:23.145Z,24.03
2018-05-16T12:09:23.362Z,23.98
2018-05-16T12:10:23.173Z,24.02
2018-05-16T12:11:23.294Z,24.05
2018-05-16T12:12:23.245Z,24.06
2018-05-16T12:13:23.252Z,24.1
2018-05-16T12:14:23.273Z,24.16
2018-05-16T12:15:23.319Z,24.2
2018-05-16T12:16:23.335Z,24.17
2018-05-16T12:17:23.085Z,24.24
2018-05-16T12:18:23.408Z,24.28
2018-05-16T12:19:23.127Z,24.21
2018-05-16T12:20:23.175Z,24.28
2018-05-16T12:21:23.444Z,24.3
2018-05-16T12:22:23.508Z,24.33
2018-05-16T12:23:23.525Z,24.33
2018-05-16T12:24:23.516Z,24.36
2018-05-16T12:25:23.543Z,24.38
2018-05-16T12:26:23.578Z,24.4
2018-05-16T12:27:23.619Z,24.42
2018-05-16T12:28:23.626Z,24.39
2018-05-16T12:29:24.038Z,24.43
2018-05-16T12:30:23.410Z,24.33
2018-05-16T12:31:23.703Z,24.4
2018-05-16T12:32:23.452Z,24.33
2018-05-16T12:33:23.767Z,24.33
2018-05-16T12:34:23.807Z,24.28
2018-05-16T12:35:23.821Z,24.33
2018-05-16T12:36:23.856Z,24.35
2018-05-16T12:37:23.851Z,24.33
2018-05-16T12:38:23.629Z,24.45
2018-05-16T12:39:23.629Z,24.5
2018-05-16T12:40:23.913Z,24.47
2018-05-16T12:41:23.960Z,24.47
2018-05-16T12:42:23.968Z,24.43
2018-05-16T12:43:24.030Z,24.45
2018-05-16T12:44:23.768Z,24.53
2018-05-16T12:45:23.501Z,24.48
2018-05-16T12:46:24.060Z,24.53
2018-05-16T12:47:23.837Z,24.51
2018-05-16T12:48:23.862Z,24.54
2018-05-16T12:49:24.003Z,24.6
2018-05-16T12:50:24.164Z,24.54
2018-05-16T12:51:24.206Z,24.57
2018-05-16T12:52:23.961Z,24.51
2018-05-16T12:53:24.239Z,24.53
2018-05-16T12:54:24.292Z,24.51
2018-05-16T12:55:24.299Z,24.54